Terminal Aerodrome Forecast
Issued by NWS

Home | Current Version | Previous Version | Graphics & Text | Print | Product List | Glossary On
Versions: 1 2 3 4 5 6 7 8 9 10 11 12 13 14 15
645
FTUS43 KMPX 100523
TAFAXN
TAF
KAXN 100523Z 1006/1106 01005KT P6SM SCT100
     FM101000 03003KT P6SM SCT060 BKN100
     FM101300 09004KT P6SM BKN050
     FM101600 10005KT P6SM OVC050 PROB30 1016/1018 4SM -SN OVC035
     FM110000 33004KT P6SM BKN040=

USA.gov is the U.S. government's official web portal to all federal, state and local government web resources and services.